createdAt,value
2022-09-18T00:01:16.361Z,5.85
2022-09-18T00:03:43.682Z,7.43
2022-09-18T00:06:13.675Z,5.60
2022-09-18T00:08:41.288Z,5.93
2022-09-18T00:11:10.843Z,4.50
2022-09-18T00:13:39.334Z,3.43
2022-09-18T00:16:08.325Z,4.88
2022-09-18T00:18:36.012Z,5.40
2022-09-18T00:21:15.194Z,6.35
2022-09-18T00:23:43.102Z,4.85
2022-09-18T00:26:12.171Z,6.68
2022-09-18T00:28:39.208Z,5.40
2022-09-18T00:31:18.633Z,5.07
2022-09-18T00:33:46.371Z,3.80
2022-09-18T00:36:16.890Z,3.60
2022-09-18T00:38:44.016Z,7.07
2022-09-18T00:41:25.787Z,4.95
2022-09-18T00:43:54.637Z,3.58
2022-09-18T00:46:26.996Z,3.75
2022-09-18T00:49:10.678Z,4.07
2022-09-18T00:51:40.050Z,6.05
2022-09-18T00:54:15.345Z,4.15
2022-09-18T00:56:43.375Z,3.22
2022-09-18T00:59:15.763Z,5.60
2022-09-18T01:01:43.102Z,3.88
2022-09-18T01:04:13.328Z,3.67
2022-09-18T01:06:54.240Z,4.95
2022-09-18T01:09:48.961Z,4.13
2022-09-18T01:12:27.773Z,2.88
2022-09-18T01:15:10.480Z,5.13
2022-09-18T01:18:17.361Z,3.83
2022-09-18T01:21:02.758Z,5.85
2022-09-18T01:23:57.480Z,3.78
2022-09-18T01:26:57.065Z,2.70
2022-09-18T01:29:42.838Z,5.40
2022-09-18T01:32:28.177Z,3.30
2022-09-18T01:35:40.963Z,3.78
2022-09-18T01:38:20.185Z,4.57
2022-09-18T01:40:49.122Z,4.47
2022-09-18T01:43:19.359Z,4.32
2022-09-18T01:45:54.001Z,4.68
2022-09-18T01:48:32.259Z,4.35
2022-09-18T01:51:12.819Z,3.75
2022-09-18T01:53:46.409Z,2.65
2022-09-18T01:56:20.190Z,4.57
2022-09-18T01:58:49.650Z,2.35
2022-09-18T02:01:21.142Z,4.75
2022-09-18T02:03:57.360Z,4.53
2022-09-18T02:06:30.093Z,4.93
2022-09-18T02:09:01.289Z,5.80
2022-09-18T02:11:32.159Z,2.95
2022-09-18T02:14:15.048Z,3.00
2022-09-18T02:17:03.360Z,5.28
2022-09-18T02:19:39.038Z,6.03
2022-09-18T02:22:11.114Z,5.70
2022-09-18T02:24:41.113Z,4.40
2022-09-18T02:29:37.478Z,2.83
2022-09-18T02:32:05.077Z,3.50
2022-09-18T02:34:33.358Z,5.65
2022-09-18T02:37:06.762Z,7.88
2022-09-18T02:39:55.823Z,4.10
2022-09-18T02:42:36.323Z,5.00
2022-09-18T02:45:14.804Z,4.22
2022-09-18T02:48:13.091Z,4.10
2022-09-18T02:50:55.584Z,3.88
2022-09-18T02:53:30.638Z,3.67
2022-09-18T02:56:03.711Z,4.50
2022-09-18T02:58:55.281Z,4.65
2022-09-18T03:01:26.988Z,3.40
2022-09-18T03:03:55.090Z,4.60
2022-09-18T03:06:34.560Z,2.80
2022-09-18T03:09:01.669Z,4.80
2022-09-18T03:11:30.678Z,3.85
2022-09-18T03:13:57.649Z,5.78
2022-09-18T03:16:24.956Z,3.60
2022-09-18T03:18:52.198Z,3.35
2022-09-18T03:21:19.198Z,4.25
2022-09-18T03:23:46.218Z,4.85
2022-09-18T03:26:22.760Z,4.10
2022-09-18T03:28:50.720Z,5.45
2022-09-18T03:31:19.082Z,5.25
2022-09-18T03:33:47.127Z,3.85
2022-09-18T03:36:14.330Z,4.22
2022-09-18T03:38:41.961Z,4.78
2022-09-18T03:41:09.699Z,4.05
2022-09-18T03:43:40.598Z,3.97
2022-09-18T03:46:10.090Z,5.47
2022-09-18T03:48:37.958Z,3.08
2022-09-18T03:51:05.293Z,5.10
2022-09-18T03:53:33.137Z,4.22
2022-09-18T03:56:19.269Z,4.07
2022-09-18T03:58:59.648Z,3.85
2022-09-18T04:01:50.132Z,4.30
2022-09-18T04:04:26.958Z,6.53
2022-09-18T04:07:12.721Z,7.22
2022-09-18T04:09:53.122Z,6.00
2022-09-18T04:12:20.624Z,4.53
2022-09-18T04:14:55.521Z,4.95
2022-09-18T04:17:23.958Z,4.82
2022-09-18T04:19:53.598Z,5.70
2022-09-18T04:22:22.281Z,4.75
2022-09-18T04:24:50.644Z,6.20
2022-09-18T04:27:18.158Z,5.32
2022-09-18T04:29:45.278Z,3.17
2022-09-18T04:32:13.803Z,4.65
2022-09-18T04:34:40.896Z,4.80
2022-09-18T04:37:10.575Z,5.07
2022-09-18T04:39:39.078Z,3.83
2022-09-18T04:42:06.448Z,3.95
2022-09-18T04:44:33.632Z,8.75
2022-09-18T04:47:00.994Z,4.97
2022-09-18T04:49:28.123Z,5.63
2022-09-18T04:51:55.179Z,6.85
2022-09-18T04:54:22.278Z,3.05
2022-09-18T04:56:49.477Z,5.35
2022-09-18T04:59:17.522Z,4.32
2022-09-18T05:01:47.002Z,4.87
2022-09-18T05:04:15.033Z,6.30
2022-09-18T05:06:54.822Z,4.93
2022-09-18T05:09:22.838Z,5.30
2022-09-18T05:11:49.881Z,5.53
2022-09-18T05:14:17.959Z,4.70
2022-09-18T05:16:48.128Z,3.10
2022-09-18T05:19:44.641Z,3.92
2022-09-18T05:22:21.277Z,5.60
2022-09-18T05:24:51.069Z,9.23
2022-09-18T05:27:18.158Z,4.47
2022-09-18T05:29:45.690Z,4.20
2022-09-18T05:32:20.441Z,4.32
2022-09-18T05:34:50.242Z,6.47
2022-09-18T05:37:18.677Z,5.43
2022-09-18T05:39:49.721Z,6.13
2022-09-18T05:42:16.829Z,8.30
2022-09-18T05:44:44.419Z,7.70
2022-09-18T05:47:17.021Z,6.45
2022-09-18T05:49:44.169Z,4.53
2022-09-18T05:52:11.241Z,5.30
2022-09-18T05:54:39.679Z,6.50
2022-09-18T05:57:08.685Z,4.35
2022-09-18T05:59:35.801Z,5.65
2022-09-18T06:02:03.333Z,7.38
2022-09-18T06:04:49.202Z,5.88
2022-09-18T06:07:17.770Z,6.70
2022-09-18T06:09:44.926Z,7.75
2022-09-18T06:12:12.447Z,7.05
2022-09-18T06:14:39.510Z,8.57
2022-09-18T06:17:06.848Z,8.23
2022-09-18T06:19:35.360Z,10.82
2022-09-18T06:22:02.559Z,10.20
2022-09-18T06:24:29.641Z,9.05
2022-09-18T06:27:05.242Z,11.18
2022-09-18T06:29:32.364Z,10.75
2022-09-18T06:32:05.815Z,8.32
2022-09-18T06:34:36.727Z,13.55
2022-09-18T06:37:10.249Z,9.18
2022-09-18T06:39:43.969Z,12.73
2022-09-18T06:42:29.483Z,9.05
2022-09-18T06:45:11.891Z,11.63
2022-09-18T06:47:39.651Z,10.07
2022-09-18T06:50:08.327Z,13.15
2022-09-18T06:52:36.438Z,12.27
2022-09-18T06:55:05.847Z,14.57
2022-09-18T06:57:33.720Z,9.45
2022-09-18T07:00:00.922Z,10.65
2022-09-18T07:02:33.504Z,12.23
2022-09-18T07:05:19.366Z,14.57
2022-09-18T07:07:46.854Z,15.32
2022-09-18T07:10:14.107Z,15.98
2022-09-18T07:15:19.773Z,17.48
2022-09-18T07:17:46.929Z,16.10
2022-09-18T07:20:16.839Z,15.67
2022-09-18T07:22:47.473Z,16.52
2022-09-18T07:25:15.653Z,20.98
2022-09-18T07:27:44.127Z,13.15
2022-09-18T07:30:12.968Z,15.38
2022-09-18T07:32:40.040Z,16.35
2022-09-18T07:35:13.440Z,15.30
2022-09-18T07:37:41.087Z,30.17
2022-09-18T07:40:17.323Z,15.25
2022-09-18T07:43:08.796Z,22.20
2022-09-18T07:45:38.663Z,12.45
2022-09-18T07:48:07.737Z,15.65
2022-09-18T07:50:40.757Z,18.42
2022-09-18T07:53:10.351Z,17.05
2022-09-18T07:55:42.640Z,19.13
2022-09-18T07:58:10.091Z,10.60
2022-09-18T08:01:12.698Z,16.77
2022-09-18T08:06:20.722Z,11.68
2022-09-18T08:08:56.441Z,12.00
2022-09-18T08:11:38.181Z,10.63
2022-09-18T08:14:28.917Z,12.18
2022-09-18T08:17:16.230Z,11.63
2022-09-18T08:20:03.139Z,11.90
2022-09-18T08:22:44.425Z,10.77
2022-09-18T08:25:12.831Z,10.25
2022-09-18T08:27:42.688Z,10.60
2022-09-18T08:30:12.124Z,8.35
2022-09-18T08:35:09.683Z,13.48
2022-09-18T08:37:37.219Z,10.07
2022-09-18T08:40:36.715Z,12.13
2022-09-18T08:43:18.506Z,11.70
2022-09-18T08:46:09.676Z,12.52
2022-09-18T08:49:17.442Z,11.25
2022-09-18T08:52:09.160Z,12.68
2022-09-18T08:54:46.361Z,11.45
2022-09-18T08:57:42.722Z,11.13
2022-09-18T09:00:48.422Z,12.00
2022-09-18T09:03:35.108Z,10.82
2022-09-18T09:06:16.388Z,10.82
2022-09-18T09:09:06.863Z,13.70
2022-09-18T09:12:12.458Z,23.90
2022-09-18T09:14:57.572Z,10.27
2022-09-18T09:17:48.481Z,6.10
2022-09-18T09:20:53.032Z,5.88
2022-09-18T09:23:44.997Z,30.90
2022-09-18T09:26:26.388Z,7.32
2022-09-18T09:29:05.494Z,6.43
2022-09-18T09:32:16.022Z,5.82
2022-09-18T09:35:29.843Z,6.82
2022-09-18T09:38:52.615Z,8.10
2022-09-18T09:41:37.559Z,6.47
2022-09-18T09:44:33.963Z,7.70
2022-09-18T09:47:03.842Z,6.22
2022-09-18T09:49:44.954Z,5.65
2022-09-18T09:52:24.007Z,5.60
2022-09-18T09:55:27.443Z,9.98
2022-09-18T09:58:20.410Z,5.72
2022-09-18T10:00:59.949Z,4.43
2022-09-18T10:03:40.211Z,6.50
2022-09-18T10:06:19.306Z,3.88
2022-09-18T10:09:19.602Z,6.00
2022-09-18T10:12:04.895Z,16.05
2022-09-18T10:14:38.446Z,4.82
2022-09-18T10:17:07.208Z,3.15
2022-09-18T10:19:37.977Z,5.03
2022-09-18T10:22:08.236Z,4.00
2022-09-18T10:24:47.238Z,2.83
2022-09-18T10:27:17.510Z,3.15
2022-09-18T10:29:46.079Z,2.75
2022-09-18T10:32:41.682Z,3.60
2022-09-18T10:35:31.496Z,3.08
2022-09-18T10:37:59.608Z,3.42
2022-09-18T10:40:40.422Z,5.13
2022-09-18T10:43:18.799Z,3.47
2022-09-18T10:45:53.114Z,3.33
2022-09-18T10:48:31.754Z,4.55
2022-09-18T10:51:03.605Z,4.32
2022-09-18T10:53:39.962Z,3.95
2022-09-18T10:56:20.352Z,7.38
2022-09-18T10:58:50.770Z,4.80
2022-09-18T11:01:18.956Z,4.10
2022-09-18T11:04:06.809Z,2.75
2022-09-18T11:06:37.850Z,2.70
2022-09-18T11:09:37.503Z,5.30
2022-09-18T11:12:06.062Z,5.32
2022-09-18T11:14:43.844Z,3.20
2022-09-18T11:17:30.495Z,2.97
2022-09-18T11:20:00.761Z,2.45
2022-09-18T11:22:48.200Z,1.95
2022-09-18T11:25:25.085Z,1.15
2022-09-18T11:27:58.412Z,4.13
2022-09-18T11:30:31.485Z,2.33
2022-09-18T11:33:27.530Z,3.08
2022-09-18T11:36:08.001Z,4.40
2022-09-18T11:38:42.558Z,4.50
2022-09-18T11:41:12.333Z,3.78
2022-09-18T11:43:44.994Z,4.05
2022-09-18T11:46:42.263Z,2.97
2022-09-18T11:49:26.124Z,2.70
2022-09-18T11:51:59.885Z,2.33
2022-09-18T11:54:54.185Z,2.45
2022-09-18T11:57:49.159Z,4.05
2022-09-18T12:00:22.358Z,3.70
2022-09-18T12:03:02.537Z,2.55
2022-09-18T12:06:21.210Z,2.40
2022-09-18T12:09:04.280Z,2.30
2022-09-18T12:11:59.599Z,2.97
2022-09-18T12:14:48.050Z,5.68
2022-09-18T12:17:41.287Z,2.60
2022-09-18T12:20:20.670Z,4.68
2022-09-18T12:22:59.239Z,4.53
2022-09-18T12:26:02.980Z,5.43
2022-09-18T12:29:05.074Z,5.88
2022-09-18T12:32:03.909Z,4.05
2022-09-18T12:34:59.015Z,3.28
2022-09-18T12:38:13.908Z,6.43
2022-09-18T12:41:13.953Z,4.53
2022-09-18T12:43:55.773Z,2.55
2022-09-18T12:46:41.244Z,5.63
2022-09-18T12:49:52.769Z,4.47
2022-09-18T12:53:06.291Z,4.95
2022-09-18T12:55:52.154Z,5.45
2022-09-18T12:58:54.320Z,5.53
2022-09-18T13:01:30.473Z,4.53
2022-09-18T13:04:07.238Z,6.15
2022-09-18T13:06:45.440Z,7.43
2022-09-18T13:09:25.147Z,5.30
2022-09-18T13:14:53.671Z,5.60
2022-09-18T13:17:29.119Z,8.05
2022-09-18T13:20:07.037Z,8.98
2022-09-18T13:22:37.833Z,7.28
2022-09-18T13:25:15.165Z,6.95
2022-09-18T13:27:42.482Z,6.82
2022-09-18T13:30:27.062Z,6.55
2022-09-18T13:32:55.013Z,7.07
2022-09-18T13:35:46.786Z,9.50
2022-09-18T13:38:16.317Z,6.38
2022-09-18T13:40:48.010Z,8.10
2022-09-18T13:43:40.917Z,7.18
2022-09-18T13:46:10.278Z,6.50
2022-09-18T13:48:39.995Z,11.65
2022-09-18T13:51:20.374Z,8.27
2022-09-18T13:56:16.485Z,7.85
2022-09-18T13:59:00.557Z,5.47
2022-09-18T14:01:43.183Z,9.77
2022-09-18T14:04:43.770Z,9.43
2022-09-18T14:09:52.510Z,5.82
2022-09-18T14:12:21.089Z,8.57
2022-09-18T14:15:21.382Z,9.02
2022-09-18T14:18:16.486Z,8.85
2022-09-18T14:20:50.477Z,9.20
2022-09-18T14:23:35.726Z,6.72
2022-09-18T14:26:09.115Z,5.40
2022-09-18T14:28:36.744Z,4.88
2022-09-18T14:31:14.189Z,6.53
2022-09-18T14:33:43.518Z,6.40
2022-09-18T14:36:14.643Z,6.95
2022-09-18T14:38:42.036Z,6.57
2022-09-18T14:41:19.529Z,7.20
2022-09-18T14:44:00.443Z,6.85
2022-09-18T14:46:28.720Z,4.70
2022-09-18T14:48:55.852Z,6.10
2022-09-18T14:51:26.091Z,6.93
2022-09-18T14:53:58.517Z,9.57
2022-09-18T14:56:36.772Z,8.65
2022-09-18T14:59:06.849Z,6.68
2022-09-18T15:01:40.746Z,4.70
2022-09-18T15:04:26.066Z,15.65
2022-09-18T15:06:55.079Z,5.15
2022-09-18T15:09:33.063Z,5.18
2022-09-18T15:12:02.998Z,7.03
2022-09-18T15:17:36.168Z,8.90
2022-09-18T15:20:16.262Z,7.53
2022-09-18T15:22:43.781Z,8.20
2022-09-18T15:25:15.136Z,5.00
2022-09-18T15:27:44.874Z,7.25
2022-09-18T15:30:18.941Z,10.10
2022-09-18T15:33:16.906Z,3.58
2022-09-18T15:35:45.241Z,5.60
2022-09-18T15:38:19.416Z,6.30
2022-09-18T15:40:47.549Z,5.53
2022-09-18T15:43:43.611Z,5.45
2022-09-18T15:46:23.738Z,9.50
2022-09-18T15:48:52.257Z,7.75
2022-09-18T15:51:31.659Z,5.97
2022-09-18T15:54:06.262Z,7.80
2022-09-18T15:56:34.716Z,8.40
2022-09-18T15:59:06.637Z,5.93
2022-09-18T16:01:40.075Z,6.70
2022-09-18T16:04:15.288Z,5.20
2022-09-18T16:06:50.155Z,5.10
2022-09-18T16:09:35.964Z,5.97
2022-09-18T16:12:31.667Z,3.47
2022-09-18T16:15:08.510Z,6.35
2022-09-18T16:17:38.154Z,3.85
2022-09-18T16:20:39.712Z,4.82
2022-09-18T16:23:20.011Z,3.35
2022-09-18T16:26:15.662Z,5.53
2022-09-18T16:28:45.360Z,6.82
2022-09-18T16:31:17.145Z,5.55
2022-09-18T16:33:51.954Z,7.68
2022-09-18T16:36:34.468Z,7.63
2022-09-18T16:39:24.175Z,7.55
2022-09-18T16:41:51.273Z,6.40
2022-09-18T16:44:19.192Z,4.18
2022-09-18T16:47:00.744Z,5.50
2022-09-18T16:49:36.461Z,6.18
2022-09-18T16:52:04.280Z,10.32
2022-09-18T16:54:31.553Z,14.52
2022-09-18T16:57:10.242Z,14.52
2022-09-18T16:59:41.003Z,9.95
2022-09-18T17:02:09.174Z,13.52
2022-09-18T17:04:36.234Z,11.77
2022-09-18T17:07:03.490Z,10.65
2022-09-18T17:09:30.760Z,7.93
2022-09-18T17:11:57.990Z,9.95
2022-09-18T17:14:25.366Z,9.70
2022-09-18T17:16:52.607Z,13.48
2022-09-18T17:19:20.311Z,5.78
2022-09-18T17:21:47.510Z,11.02
2022-09-18T17:24:14.590Z,8.73
2022-09-18T17:26:42.442Z,6.35
2022-09-18T17:29:11.498Z,8.02
2022-09-18T17:31:38.667Z,8.80
2022-09-18T17:34:06.162Z,17.00
2022-09-18T17:36:36.969Z,15.00
2022-09-18T17:39:04.870Z,8.35
2022-09-18T17:41:33.137Z,10.77
2022-09-18T17:44:00.202Z,11.70
2022-09-18T17:46:27.649Z,12.50
2022-09-18T17:48:56.886Z,8.93
2022-09-18T17:51:28.428Z,14.00
2022-09-18T17:54:02.979Z,10.73
2022-09-18T17:56:31.283Z,11.68
2022-09-18T17:59:00.517Z,9.95
2022-09-18T18:01:29.445Z,11.85
2022-09-18T18:03:57.463Z,17.30
2022-09-18T18:06:25.153Z,13.77
2022-09-18T18:08:52.831Z,11.15
2022-09-18T18:11:22.687Z,28.98
2022-09-18T18:13:51.271Z,15.48
2022-09-18T18:16:23.913Z,11.73
2022-09-18T18:18:54.392Z,7.78
2022-09-18T18:23:49.303Z,6.15
2022-09-18T18:26:16.576Z,7.65
2022-09-18T18:28:45.163Z,8.68
2022-09-18T18:31:14.658Z,8.20
2022-09-18T18:33:43.194Z,9.03
2022-09-18T18:36:14.943Z,8.15
2022-09-18T18:38:45.485Z,8.32
2022-09-18T18:41:13.968Z,7.72
2022-09-18T18:43:41.477Z,9.50
2022-09-18T18:46:12.919Z,9.38
2022-09-18T18:48:41.079Z,7.50
2022-09-18T18:51:11.326Z,8.45
2022-09-18T18:53:38.724Z,7.15
2022-09-18T18:56:11.514Z,7.72
2022-09-18T18:58:39.392Z,7.95
2022-09-18T19:01:14.382Z,7.43
2022-09-18T19:03:55.561Z,7.32
2022-09-18T19:06:27.320Z,9.70
2022-09-18T19:09:00.220Z,6.70
2022-09-18T19:11:30.223Z,5.57
2022-09-18T19:13:57.720Z,9.40
2022-09-18T19:16:26.680Z,8.13
2022-09-18T19:18:59.797Z,7.15
2022-09-18T19:21:28.380Z,6.78
2022-09-18T19:23:59.416Z,11.68
2022-09-18T19:26:28.602Z,12.85
2022-09-18T19:29:01.035Z,8.48
2022-09-18T19:31:29.579Z,7.43
2022-09-18T19:33:58.043Z,9.88
2022-09-18T19:36:28.684Z,6.47
2022-09-18T19:38:58.209Z,6.50
2022-09-18T19:41:28.910Z,6.17
2022-09-18T19:43:56.372Z,5.53
2022-09-18T19:46:27.791Z,6.93
2022-09-18T19:48:55.245Z,7.00
2022-09-18T19:51:23.153Z,6.78
2022-09-18T19:53:50.300Z,6.97
2022-09-18T19:56:39.361Z,8.15
2022-09-18T19:59:05.580Z,7.00
2022-09-18T20:01:33.354Z,8.00
2022-09-18T20:04:00.445Z,6.45
2022-09-18T20:06:27.605Z,6.72
2022-09-18T20:08:54.723Z,6.80
2022-09-18T20:11:22.052Z,6.55
2022-09-18T20:13:53.743Z,5.60
2022-09-18T20:16:21.399Z,5.28
2022-09-18T20:18:49.596Z,6.35
2022-09-18T20:21:18.674Z,7.65
2022-09-18T20:23:47.859Z,6.03
2022-09-18T20:26:17.674Z,6.85
2022-09-18T20:28:45.320Z,10.30
2022-09-18T20:31:15.228Z,12.60
2022-09-18T20:33:42.781Z,11.32
2022-09-18T20:36:11.617Z,5.75
2022-09-18T20:38:40.954Z,7.05
2022-09-18T20:41:14.136Z,7.07
2022-09-18T20:43:42.633Z,8.43
2022-09-18T20:46:16.370Z,8.40
2022-09-18T20:48:58.317Z,9.70
2022-09-18T20:51:32.599Z,9.50
2022-09-18T20:53:59.714Z,8.43
2022-09-18T20:56:33.988Z,6.00
2022-09-18T20:59:05.154Z,6.43
2022-09-18T21:01:38.118Z,7.07
2022-09-18T21:04:05.337Z,10.35
2022-09-18T21:06:34.127Z,8.50
2022-09-18T21:09:08.729Z,7.63
2022-09-18T21:11:41.207Z,7.78
2022-09-18T21:14:11.812Z,6.05
2022-09-18T21:16:43.678Z,6.95
2022-09-18T21:19:12.766Z,7.03
2022-09-18T21:21:40.310Z,6.15
2022-09-18T21:24:09.045Z,5.82
2022-09-18T21:26:36.080Z,9.65
2022-09-18T21:29:14.963Z,7.25
2022-09-18T21:31:43.232Z,8.35
2022-09-18T21:34:15.998Z,6.35
2022-09-18T21:36:46.410Z,10.27
2022-09-18T21:41:46.307Z,7.65
2022-09-18T21:44:17.437Z,6.13
2022-09-18T21:46:46.101Z,7.15
2022-09-18T21:49:15.122Z,6.53
2022-09-18T21:51:42.701Z,7.60
2022-09-18T21:54:15.423Z,7.07
2022-09-18T21:56:44.364Z,7.25
2022-09-18T21:59:11.960Z,7.07
2022-09-18T22:01:39.176Z,6.15
2022-09-18T22:04:07.471Z,7.18
2022-09-18T22:06:41.741Z,5.95
2022-09-18T22:09:33.724Z,6.32
2022-09-18T22:12:01.489Z,12.10
2022-09-18T22:14:32.389Z,5.75
2022-09-18T22:17:04.855Z,7.07
2022-09-18T22:19:33.476Z,6.97
2022-09-18T22:22:01.612Z,7.97
2022-09-18T22:24:29.348Z,7.32
2022-09-18T22:26:59.541Z,7.28
2022-09-18T22:29:28.168Z,9.38
2022-09-18T22:31:55.869Z,8.07
2022-09-18T22:34:26.596Z,7.00
2022-09-18T22:36:54.275Z,5.15
2022-09-18T22:39:22.479Z,5.32
2022-09-18T22:41:51.724Z,7.10
2022-09-18T22:44:21.518Z,6.32
2022-09-18T22:46:49.904Z,5.97
2022-09-18T22:49:18.523Z,8.25
2022-09-18T22:51:46.439Z,5.25
2022-09-18T22:54:15.359Z,6.25
2022-09-18T22:56:47.719Z,6.25
2022-09-18T22:59:16.742Z,6.03
2022-09-18T23:01:49.194Z,7.43
2022-09-18T23:04:21.043Z,5.45
2022-09-18T23:06:48.563Z,6.43
2022-09-18T23:09:18.000Z,7.22
2022-09-18T23:11:48.090Z,8.70
2022-09-18T23:14:20.679Z,7.00
2022-09-18T23:16:49.351Z,5.75
2022-09-18T23:19:22.799Z,6.63
2022-09-18T23:21:50.684Z,7.95
2022-09-18T23:24:18.352Z,6.32
2022-09-18T23:26:47.972Z,6.50
2022-09-18T23:29:18.561Z,7.07
2022-09-18T23:31:47.589Z,7.93
2022-09-18T23:34:18.649Z,8.52
2022-09-18T23:36:48.405Z,5.60
2022-09-18T23:39:21.659Z,7.53
2022-09-18T23:41:49.279Z,5.20
2022-09-18T23:44:17.942Z,6.20
2022-09-18T23:46:46.060Z,4.90
2022-09-18T23:49:14.525Z,5.80
2022-09-18T23:51:44.480Z,6.55
2022-09-18T23:54:19.038Z,6.05
2022-09-18T23:56:46.799Z,4.65
2022-09-18T23:59:17.769Z,6.90
